Terminal Aerodrome Forecast
Issued by NWS

Home | Current Version | Previous Version | Text Only | Print | Product List | Glossary Off
Versions: 1 2 3 4 5 6 7 8 9 10 11 12 13 14 15 16 17 18 19 20 21 22 23

000
FTUS42 KMHX 161000 AAC
TAFOAJ
TAF AMD
KOAJ 161038Z 1611/1706 00000KT P6SM VCSH OVC025
     FM161500 27005KT P6SM BKN035
     FM161800 34005KT P6SM SCT040
     FM170000 VRB03KT P6SM BKN040
      AMD LTD TO CLD VIS AND WIND=

USA.gov is the U.S. government's official web portal to all federal, state and local government web resources and services.